Main page
METAR-TAF:

METAR-TAF

Airports :

London Southend Airport

London-Southend, England

latitude: 51-34N, longitude: 000-42E, elevation: 15 m

Current weather observation

The report was made 12 minutes ago, at 18:50 UTC
Wind 10 kt from the South
Temperature 12°C
Humidity 67%
Pressure 998 hPa
Visibility 10 km or more
Few clouds at a height of 2800 ft

METAR: EGMC 241850Z 19010KT 9999 FEW028 12/06 Q0998

Time: 20:02 (19:02 UTC)

Forecast

The report was made 2 hours and 4 minutes ago, at 16:58 UTC
Forecast valid from 24 at 18 UTC to 25 at 03 UTC
Wind 8 kt from the South
Visibility 10 km or more
Scattered clouds at a height of 3500 ft
Becoming
from 24 at 23 UTC to 25 at 02 UTC
Wind 10 kt from the East/Southeast
Temporary
from 25 at 02 UTC to 25 at 03 UTC
Visibility: 5000 m
rain, rain showers

TAF: EGMC 241658Z 2418/2503 19008KT 9999 SCT035 BECMG 2423/2502 12010KT TEMPO 2502/2503 5000 RA SHRA

Weather observations and forecasts of more than 4000 airports (METAR and TAF reports).

The available stations are represented by yellow and red dots on the map.

Hover mouse over dot to see the name of the station.

Then click to see weather observations and forecasts.

To change the map : click on the green buttons with a black cross to zoom in, on the green button with a dash to zoom out, or on the green arrows for adjacent maps.


METAR-TAF: